Time;durP1;ratioP1;P1;durP2;ratioP2;P2;SDS_P1;SDS_P2;PMS_P1;PMS_P2;Temp;Humidity;BMP_temperature;BMP_pressure;BME280_temperature;BME280_humidity;BME280_pressure;Samples;Min_cycle;Max_cycle;Signal;HPM_P1;HPM_P2
2021/01/18 00:01:33;;;;;;;50.60;28.23;;;;;;;-10.00;70.76;96880.03;1710186;84;21125;-76
2021/01/18 00:03:59;;;;;;;47.83;27.50;;;;;;;-10.14;70.60;96880.43;1707281;82;21097;-75
2021/01/18 00:06:26;;;;;;;55.30;30.77;;;;;;;-10.05;70.89;96875.58;1713129;82;21118;-75
2021/01/18 00:08:52;;;;;;;52.90;28.20;;;;;;;-10.17;70.61;96867.13;1672513;83;21290;-77
2021/01/18 00:11:19;;;;;;;42.55;23.67;;;;;;;-10.27;70.55;96871.62;1695129;85;21364;-78
2021/01/18 00:13:47;;;;;;;49.98;26.93;;;;;;;-10.31;70.72;96872.58;1693170;84;21153;-78
2021/01/18 00:16:20;;;;;;;42.78;24.25;;;;;;;-10.41;70.78;96874.55;1667795;83;21094;-77
2021/01/18 00:18:46;;;;;;;48.80;26.75;;;;;;;-10.53;70.78;96866.09;1686315;83;21117;-78
2021/01/18 00:21:16;;;;;;;43.70;23.62;;;;;;;-10.59;70.99;96870.00;1695149;84;21247;-78
2021/01/18 00:23:42;;;;;;;32.00;20.00;;;;;;;-10.62;71.02;96865.06;1693070;84;21461;-78
2021/01/18 00:26:09;;;;;;;46.35;27.95;;;;;;;-10.68;70.95;96867.75;1684993;84;21139;-78
2021/01/18 00:28:36;;;;;;;41.60;24.55;;;;;;;-10.80;71.07;96864.30;1695195;83;21248;-78
2021/01/18 00:31:03;;;;;;;49.98;26.05;;;;;;;-10.86;71.05;96861.97;1668538;83;21141;-78
2021/01/18 00:33:29;;;;;;;45.10;25.27;;;;;;;-10.97;71.07;96860.55;1681823;83;21090;-78
2021/01/18 00:35:55;;;;;;;35.95;22.40;;;;;;;-10.95;71.27;96875.56;1684562;83;21091;-77
2021/01/18 00:38:21;;;;;;;35.95;21.17;;;;;;;-10.91;71.14;96872.11;1672417;85;21178;-78
2021/01/18 00:40:47;;;;;;;43.42;24.18;;;;;;;-10.99;71.06;96871.06;1695233;84;21110;-78
2021/01/18 00:43:14;;;;;;;39.35;23.50;;;;;;;-10.99;71.22;96880.28;1694911;85;21086;-78
2021/01/18 00:45:40;;;;;;;35.35;21.85;;;;;;;-10.99;71.21;96882.79;1694522;85;21102;-78
2021/01/18 00:48:07;;;;;;;44.73;23.45;;;;;;;-10.94;71.17;96882.23;1695101;84;21301;-78
2021/01/18 00:50:34;;;;;;;32.83;21.40;;;;;;;-10.95;70.88;96888.11;1679511;83;21408;-78
2021/01/18 00:53:00;;;;;;;31.90;21.15;;;;;;;-10.93;70.73;96881.36;1695070;84;21465;-77
2021/01/18 00:55:27;;;;;;;37.63;21.52;;;;;;;-11.02;70.69;96885.38;1695001;85;21122;-78
2021/01/18 00:57:53;;;;;;;42.85;24.02;;;;;;;-11.16;70.83;96887.41;1695420;85;21244;-78
2021/01/18 01:00:22;;;;;;;37.60;21.52;;;;;;;-11.16;70.88;96889.48;1695230;84;21142;-78
2021/01/18 01:02:50;;;;;;;34.85;21.25;;;;;;;-11.19;70.79;96888.31;1661528;86;21134;-78
2021/01/18 01:05:20;;;;;;;46.60;23.00;;;;;;;-11.26;70.94;96881.78;1691571;83;21161;-78
2021/01/18 01:07:50;;;;;;;36.23;21.93;;;;;;;-11.35;70.85;96875.75;1715333;82;21342;-78
2021/01/18 01:10:23;;;;;;;38.23;21.35;;;;;;;-11.31;70.97;96871.87;1712458;82;21155;-77
2021/01/18 01:13:03;;;;;;;31.90;20.65;;;;;;;-11.35;70.32;96870.73;1718217;82;21144;-78
2021/01/18 01:15:30;;;;;;;33.05;20.20;;;;;;;-11.43;70.17;96867.57;1705533;83;21391;-77
2021/01/18 01:17:56;;;;;;;30.00;18.80;;;;;;;-11.53;69.77;96866.55;1708434;83;21145;-78
2021/01/18 01:20:23;;;;;;;35.40;19.80;;;;;;;-11.48;69.51;96870.63;1702135;83;21172;-78
2021/01/18 01:22:50;;;;;;;31.73;19.73;;;;;;;-11.54;69.23;96871.61;1718102;83;21093;-77
2021/01/18 01:25:18;;;;;;;31.80;18.40;;;;;;;-11.56;69.17;96878.31;1696054;83;21147;-77
2021/01/18 01:27:44;;;;;;;27.87;17.52;;;;;;;-11.61;68.95;96883.87;1709141;83;21128;-78
2021/01/18 01:30:19;;;;;;;31.60;18.35;;;;;;;-11.66;68.84;96886.50;1718023;83;21363;-78
2021/01/18 01:32:47;;;;;;;30.32;19.87;;;;;;;-11.84;69.26;96876.49;1698504;83;21279;-78
2021/01/18 01:35:16;;;;;;;31.57;18.70;;;;;;;-11.84;69.26;96876.49;1708066;83;21094;-78
2021/01/18 01:37:42;;;;;;;28.75;19.57;;;;;;;-11.90;69.59;96877.86;1719687;83;21125;-78
2021/01/18 01:40:11;;;;;;;33.58;18.65;;;;;;;-11.85;69.80;96875.27;1698603;83;21157;-77
2021/01/18 01:42:38;;;;;;;27.17;17.92;;;;;;;-11.84;69.41;96870.66;1705546;83;21126;-77
2021/01/18 01:45:07;;;;;;;33.67;19.25;;;;;;;-11.89;69.27;96877.00;1700024;83;21243;-78
2021/01/18 01:47:40;;;;;;;31.48;19.40;;;;;;;-11.93;69.27;96876.68;1705249;83;21125;-77
2021/01/18 01:50:19;;;;;;;25.50;17.85;;;;;;;-11.96;69.13;96882.20;1700580;83;21151;-78
2021/01/18 01:52:48;;;;;;;29.27;18.00;;;;;;;-12.04;69.06;96886.13;1690293;83;21113;-78
2021/01/18 01:55:23;;;;;;;26.82;18.17;;;;;;;-12.07;68.93;96878.66;1700001;83;21796;-78
2021/01/18 01:57:50;;;;;;;26.73;18.05;;;;;;;-12.14;68.72;96873.39;1700274;83;21149;-78
2021/01/18 02:00:18;;;;;;;28.32;18.35;;;;;;;-12.20;68.69;96873.53;1698110;83;21368;-77
2021/01/18 02:02:44;;;;;;;24.55;17.60;;;;;;;-12.27;68.45;96874.07;1694579;83;21134;-78
2021/01/18 02:05:13;;;;;;;26.87;18.82;;;;;;;-12.28;68.60;96881.19;1701173;83;21274;-78
2021/01/18 02:07:39;;;;;;;28.83;16.82;;;;;;;-12.27;68.63;96870.75;1701006;83;21129;-78
2021/01/18 02:10:06;;;;;;;28.55;16.70;;;;;;;-12.28;68.53;96873.67;1700595;83;21470;-78
2021/01/18 02:12:32;;;;;;;23.40;16.65;;;;;;;-12.31;68.66;96870.42;1706038;83;21124;-78
2021/01/18 02:15:29;;;;;;;26.95;17.80;;;;;;;-12.32;68.67;96875.86;1700408;83;21145;-78
2021/01/18 02:18:25;;;;;;;26.82;17.57;;;;;;;-12.40;68.30;96872.67;1699233;83;21487;-80
2021/01/18 02:21:17;;;;;;;25.77;16.87;;;;;;;-12.40;68.30;96872.67;1703455;83;21603;-80
2021/01/18 02:24:21;;;;;;;21.55;15.90;;;;;;;-12.50;68.32;96869.55;1691653;83;21148;-80
2021/01/18 02:27:16;;;;;;;34.05;19.75;;;;;;;-12.61;68.32;96865.16;1703173;83;21156;-79
2021/01/18 02:30:05;;;;;;;25.50;17.85;;;;;;;-12.61;68.37;96868.09;1697336;83;21295;-79
2021/01/18 02:33:27;;;;;;;26.30;16.42;;;;;;;-12.62;68.30;96864.77;1708776;83;21236;-78
2021/01/18 02:36:26;;;;;;;26.67;17.40;;;;;;;-12.62;68.16;96867.27;1709360;83;21465;-78
2021/01/18 02:39:14;;;;;;;24.18;15.53;;;;;;;-12.64;68.09;96857.72;1699610;83;21130;-79
2021/01/18 02:41:46;;;;;;;26.02;16.48;;;;;;;-12.64;68.09;96857.72;1706897;83;21267;-79
2021/01/18 02:44:18;;;;;;;20.95;15.65;;;;;;;-12.68;68.16;96866.58;1694792;83;21098;-79
2021/01/18 02:46:47;;;;;;;17.27;13.80;;;;;;;-12.72;68.23;96861.61;1694400;83;21174;-79
2021/01/18 02:49:13;;;;;;;21.37;14.65;;;;;;;-12.77;68.24;96859.63;1704095;83;21113;-79
2021/01/18 02:51:45;;;;;;;24.98;15.15;;;;;;;-12.79;68.24;96863.02;1711097;83;21376;-79
2021/01/18 02:54:11;;;;;;;23.70;15.78;;;;;;;-12.85;68.43;96858.97;1677806;83;21948;-79
2021/01/18 02:56:37;;;;;;;24.25;15.98;;;;;;;-12.85;68.43;96858.97;1696500;83;21089;-79
2021/01/18 02:59:04;;;;;;;20.27;14.95;;;;;;;-12.90;68.46;96854.88;1708186;83;21129;-79
2021/01/18 03:01:56;;;;;;;21.45;15.03;;;;;;;-12.87;68.37;96851.06;1694855;83;21423;-80
2021/01/18 03:04:47;;;;;;;22.77;15.68;;;;;;;-12.93;68.35;96849.52;1696456;83;21476;-79
2021/01/18 03:07:57;;;;;;;18.35;14.10;;;;;;;-12.90;68.40;96848.20;1708368;83;21247;-79
2021/01/18 03:10:42;;;;;;;19.12;13.35;;;;;;;-12.93;68.51;96849.52;1708890;83;21181;-79
2021/01/18 03:13:18;;;;;;;21.62;15.05;;;;;;;-12.96;68.67;96853.76;1701298;83;21145;-79
2021/01/18 03:15:49;;;;;;;18.17;13.90;;;;;;;-12.97;68.65;96856.69;1705289;83;21522;-79
2021/01/18 03:18:18;;;;;;;18.32;14.45;;;;;;;-12.94;68.65;96857.88;1702455;83;21102;-79
2021/01/18 03:20:44;;;;;;;18.90;14.80;;;;;;;-12.99;68.74;96850.89;1671188;83;21146;-80
2021/01/18 03:23:11;;;;;;;18.60;15.13;;;;;;;-12.95;69.45;96845.39;1706244;83;21328;-79
2021/01/18 03:25:54;;;;;;;20.57;14.70;;;;;;;-12.82;69.51;96843.06;1710385;82;21069;-79
2021/01/18 03:28:22;;;;;;;17.35;13.32;;;;;;;-12.72;69.28;96844.09;1704493;83;21153;-79
2021/01/18 03:30:48;;;;;;;17.20;12.82;;;;;;;-12.69;69.08;96837.37;1708997;83;21129;-79
2021/01/18 03:33:14;;;;;;;16.27;14.07;;;;;;;-12.76;69.09;96831.67;1710381;83;21130;-79
2021/01/18 03:35:41;;;;;;;19.48;14.73;;;;;;;-12.79;69.57;96832.56;1688227;83;21126;-79
2021/01/18 03:38:07;;;;;;;16.55;13.18;;;;;;;-12.77;69.95;96834.61;1701694;83;21149;-79
2021/01/18 03:40:33;;;;;;;15.35;12.90;;;;;;;-12.76;69.94;96835.00;1708233;83;21145;-79
2021/01/18 03:43:07;;;;;;;16.75;12.88;;;;;;;-12.73;70.15;96837.87;1701294;83;21311;-79
2021/01/18 03:45:39;;;;;;;16.15;13.15;;;;;;;-12.69;70.30;96834.88;1713865;83;21157;-79
2021/01/18 03:48:07;;;;;;;17.45;12.47;;;;;;;-12.65;70.35;96830.22;1709692;83;21200;-79
2021/01/18 03:50:34;;;;;;;17.50;13.45;;;;;;;-12.62;70.34;96820.97;1702137;83;21106;-79
2021/01/18 03:53:00;;;;;;;17.27;13.05;;;;;;;-12.58;70.28;96817.54;1702620;83;21117;-79
2021/01/18 03:55:26;;;;;;;17.15;13.28;;;;;;;-12.56;70.21;96820.83;1713203;83;21109;-79
2021/01/18 03:57:54;;;;;;;16.23;13.13;;;;;;;-12.49;70.25;96816.54;1694626;83;21356;-79
2021/01/18 04:00:22;;;;;;;14.63;12.60;;;;;;;-12.51;70.03;96815.75;1706317;83;21110;-79
2021/01/18 04:02:51;;;;;;;20.15;13.78;;;;;;;-12.56;70.18;96818.33;1711514;83;21343;-79
2021/01/18 04:05:17;;;;;;;14.03;11.22;;;;;;;-12.55;70.20;96819.16;1704671;83;21561;-79
2021/01/18 04:07:43;;;;;;;16.25;10.65;;;;;;;-12.57;70.51;96814.61;1710259;82;21113;-79
2021/01/18 04:10:11;;;;;;;16.02;11.65;;;;;;;-12.59;70.55;96816.32;1702255;82;21140;-79
2021/01/18 04:12:41;;;;;;;17.25;12.07;;;;;;;-12.58;70.51;96814.22;1705520;83;21121;-79
2021/01/18 04:15:08;;;;;;;16.82;11.95;;;;;;;-12.58;70.57;96811.71;1718812;83;21152;-78
2021/01/18 04:17:36;;;;;;;13.55;11.90;;;;;;;-12.63;70.65;96805.55;1666800;83;21487;-78
2021/01/18 04:20:02;;;;;;;14.43;12.25;;;;;;;-12.60;70.68;96811.74;1686034;83;21141;-79
2021/01/18 04:22:29;;;;;;;15.08;11.45;;;;;;;-12.60;70.75;96809.67;1704088;83;21340;-79
2021/01/18 04:24:55;;;;;;;15.43;12.33;;;;;;;-12.62;70.67;96805.13;1659492;83;21166;-79
2021/01/18 04:27:21;;;;;;;16.50;11.73;;;;;;;-12.64;70.67;96805.59;1685161;83;21156;-79
2021/01/18 04:29:47;;;;;;;14.30;11.25;;;;;;;-12.65;71.02;96805.20;1706775;83;21105;-79
2021/01/18 04:32:13;;;;;;;14.23;11.75;;;;;;;-12.62;71.00;96812.64;1693809;83;21332;-79
2021/01/18 04:34:39;;;;;;;12.18;10.98;;;;;;;-12.53;70.65;96817.44;1708111;83;21272;-79
2021/01/18 04:37:05;;;;;;;12.45;11.10;;;;;;;-12.50;70.59;96820.73;1703518;83;21146;-79
2021/01/18 04:39:31;;;;;;;15.28;11.35;;;;;;;-12.51;70.27;96817.00;1705252;82;21278;-78
2021/01/18 04:42:00;;;;;;;13.48;10.65;;;;;;;-12.56;70.41;96813.75;1691028;82;21466;-79
2021/01/18 04:44:27;;;;;;;13.10;10.28;;;;;;;-12.57;70.41;96812.11;1699184;83;21098;-79
2021/01/18 04:46:55;;;;;;;12.43;11.08;;;;;;;-12.63;70.41;96816.81;1713447;83;21137;-79
2021/01/18 04:49:21;;;;;;;12.53;11.20;;;;;;;-12.62;71.09;96802.63;1698433;83;21939;-79
2021/01/18 04:51:51;;;;;;;13.62;11.10;;;;;;;-12.62;71.09;96802.63;1699930;83;21134;-79
2021/01/18 04:54:20;;;;;;;13.65;10.93;;;;;;;-12.56;70.97;96804.98;1699613;83;21126;-79
2021/01/18 04:57:07;;;;;;;11.63;10.50;;;;;;;-12.60;70.89;96795.91;1701873;83;21145;-79
2021/01/18 04:59:49;;;;;;;11.60;9.93;;;;;;;-12.60;70.89;96795.91;1671575;84;21130;-79
2021/01/18 05:02:23;;;;;;;11.48;10.48;;;;;;;-12.56;71.19;96799.98;1696936;83;21169;-79
2021/01/18 05:04:51;;;;;;;12.00;10.90;;;;;;;-12.59;71.17;96803.38;1697370;83;21254;-79
2021/01/18 05:07:35;;;;;;;14.63;11.80;;;;;;;-12.59;71.17;96803.38;1705047;83;21162;-78
2021/01/18 05:10:12;;;;;;;11.70;10.50;;;;;;;-12.62;71.21;96800.95;1706075;83;21161;-79
2021/01/18 05:12:42;;;;;;;12.60;10.08;;;;;;;-12.57;71.19;96809.17;1704616;83;21114;-79
2021/01/18 05:15:10;;;;;;;11.65;10.30;;;;;;;-12.54;71.06;96809.53;1698204;83;21141;-78
2021/01/18 05:17:48;;;;;;;11.48;10.25;;;;;;;-12.55;70.87;96805.38;1701747;82;21228;-79
2021/01/18 05:20:17;;;;;;;11.57;10.38;;;;;;;-12.55;70.87;96805.38;1706498;83;21125;-79
2021/01/18 05:22:52;;;;;;;11.88;10.30;;;;;;;-12.54;71.00;96809.53;1699363;83;21235;-79
2021/01/18 05:25:19;;;;;;;11.03;9.88;;;;;;;-12.54;71.22;96804.53;1692059;83;21545;-79
2021/01/18 05:28:02;;;;;;;14.70;11.38;;;;;;;-12.55;71.32;96802.45;1702988;83;21117;-79
2021/01/18 05:30:32;;;;;;;9.88;8.80;;;;;;;-12.56;71.08;96800.80;1699355;83;21268;-78
2021/01/18 05:33:11;;;;;;;12.00;9.45;;;;;;;-12.58;71.16;96804.20;1701236;83;22099;-79
2021/01/18 05:35:46;;;;;;;11.12;9.75;;;;;;;-12.61;71.04;96806.77;1708223;83;21500;-78
2021/01/18 05:38:13;;;;;;;11.33;10.32;;;;;;;-12.64;71.05;96806.41;1708357;83;21150;-78
2021/01/18 05:40:50;;;;;;;10.60;9.60;;;;;;;-12.62;71.19;96806.38;1698777;83;21185;-78
2021/01/18 05:43:17;;;;;;;10.25;9.30;;;;;;;-12.62;71.20;96801.38;1694411;83;21093;-78
2021/01/18 05:45:48;;;;;;;10.65;9.48;;;;;;;-12.59;71.36;96805.88;1705858;83;21494;-78
2021/01/18 05:48:26;;;;;;;11.25;10.15;;;;;;;-12.60;71.16;96810.92;1710253;83;21201;-78
2021/01/18 05:51:01;;;;;;;10.23;9.23;;;;;;;-12.61;71.03;96810.09;1710664;83;21129;-78
2021/01/18 05:53:33;;;;;;;10.58;9.68;;;;;;;-12.73;71.23;96802.83;1703536;83;21140;-77
2021/01/18 05:56:05;;;;;;;10.00;9.08;;;;;;;-12.73;71.23;96802.83;1702523;83;21256;-78
2021/01/18 05:58:38;;;;;;;10.38;9.35;;;;;;;-12.63;71.39;96809.73;1794840;78;22961;-77
2021/01/18 06:01:04;;;;;;;10.28;9.25;;;;;;;-12.65;71.56;96808.95;1778541;79;21443;-77
2021/01/18 06:03:31;;;;;;;10.13;9.23;;;;;;;-12.65;71.49;96807.70;1778175;79;21081;-76
2021/01/18 06:05:58;;;;;;;10.13;9.35;;;;;;;-12.66;71.46;96808.55;1779638;79;21250;-77
2021/01/18 06:08:26;;;;;;;9.85;9.05;;;;;;;-12.70;71.43;96805.70;1772329;79;21122;-77
2021/01/18 06:10:54;;;;;;;11.68;9.83;;;;;;;-12.70;71.43;96805.70;1769876;79;21278;-77
2021/01/18 06:13:26;;;;;;;9.13;8.43;;;;;;;-12.66;71.53;96816.89;1769316;79;21119;-77
2021/01/18 06:16:03;;;;;;;9.65;8.83;;;;;;;-12.61;71.43;96813.03;1762611;80;21236;-77
2021/01/18 06:18:33;;;;;;;9.98;8.95;;;;;;;-12.58;71.40;96812.53;1754610;79;21257;-77
2021/01/18 06:21:01;;;;;;;8.58;7.75;;;;;;;-12.58;71.36;96810.45;1764097;79;21107;-77
2021/01/18 06:23:28;;;;;;;9.25;8.45;;;;;;;-12.55;71.21;96811.64;1794068;79;21095;-77
2021/01/18 06:25:56;;;;;;;10.95;8.33;;;;;;;-12.55;71.23;96808.71;1793029;80;21054;-76
2021/01/18 06:28:33;;;;;;;9.50;8.58;;;;;;;-12.66;71.30;96811.06;1772041;80;21066;-77
2021/01/18 06:31:11;;;;;;;9.58;8.80;;;;;;;-12.66;71.30;96811.06;1770472;79;21253;-77
2021/01/18 06:33:46;;;;;;;9.40;8.70;;;;;;;-12.72;71.30;96807.80;1770874;79;21366;-77
2021/01/18 06:36:21;;;;;;;8.88;7.97;;;;;;;-12.69;71.29;96815.70;1775037;79;21113;-79
2021/01/18 06:39:01;;;;;;;9.38;8.55;;;;;;;-12.70;71.34;96819.45;1771413;79;21096;-79
2021/01/18 06:41:36;;;;;;;10.15;9.25;;;;;;;-12.70;71.35;96824.47;1782967;80;21102;-78
2021/01/18 06:44:03;;;;;;;8.83;8.13;;;;;;;-12.66;71.46;96829.83;1721068;83;21151;-78
2021/01/18 06:46:35;;;;;;;9.13;8.23;;;;;;;-12.66;71.46;96829.83;1716753;82;21153;-77
2021/01/18 06:49:01;;;;;;;9.53;8.83;;;;;;;-12.63;71.57;96832.27;1688347;81;21143;-77
2021/01/18 06:51:29;;;;;;;8.48;7.85;;;;;;;-12.60;71.51;96825.94;1720831;82;21274;-77
2021/01/18 06:53:56;;;;;;;8.75;7.92;;;;;;;-12.60;71.54;96819.25;1724429;81;21112;-77
2021/01/18 06:56:57;;;;;;;9.33;8.53;;;;;;;-12.54;71.40;96833.31;1715907;83;21341;-77
2021/01/18 06:59:46;;;;;;;8.33;7.78;;;;;;;-12.52;71.58;96834.13;1719864;83;21126;-77
2021/01/18 07:02:23;;;;;;;8.93;8.20;;;;;;;-12.43;71.82;96843.52;1748101;81;21113;-77
2021/01/18 07:04:50;;;;;;;9.33;8.63;;;;;;;-12.35;71.72;96850.88;1716529;82;21118;-79
2021/01/18 07:07:30;;;;;;;9.23;8.53;;;;;;;-12.35;71.72;96850.88;1724123;83;21126;-79
2021/01/18 07:10:00;;;;;;;8.78;8.03;;;;;;;-12.31;71.78;96841.62;1715072;82;21094;-79
2021/01/18 07:12:28;;;;;;;8.95;7.95;;;;;;;-12.26;72.04;96841.91;1728144;83;21138;-77
2021/01/18 07:15:08;;;;;;;8.60;7.92;;;;;;;-12.23;71.92;96844.34;1718781;83;21117;-79
2021/01/18 07:17:52;;;;;;;8.95;8.25;;;;;;;-12.21;71.77;96845.13;1721717;82;21142;-78
2021/01/18 07:20:27;;;;;;;8.15;7.58;;;;;;;-12.19;71.74;96849.70;1722110;82;21122;-79
2021/01/18 07:23:30;;;;;;;9.00;8.23;;;;;;;-12.16;71.61;96853.82;1713620;82;21228;-79
2021/01/18 07:26:23;;;;;;;9.05;8.25;;;;;;;-12.13;71.42;96848.73;1723179;82;21337;-79
2021/01/18 07:28:54;;;;;;;8.85;8.05;;;;;;;-12.13;71.42;96848.73;1715747;82;21125;-78
2021/01/18 07:31:20;;;;;;;8.70;7.92;;;;;;;-12.11;71.94;96848.27;1740867;81;21151;-77
2021/01/18 07:33:47;;;;;;;8.38;7.58;;;;;;;-12.05;71.80;96850.63;1716800;82;21161;-78
2021/01/18 07:36:41;;;;;;;9.03;8.33;;;;;;;-12.01;71.58;96847.66;1723068;83;21129;-77
2021/01/18 07:39:26;;;;;;;9.28;8.25;;;;;;;-12.01;71.58;96847.66;1742105;80;21142;-76
2021/01/18 07:41:52;;;;;;;9.20;8.35;;;;;;;-11.97;71.55;96855.48;1729405;82;21134;-75
2021/01/18 07:44:41;;;;;;;9.20;8.50;;;;;;;-11.95;71.57;96857.09;1731540;82;21121;-78
2021/01/18 07:47:10;;;;;;;8.83;7.92;;;;;;;-11.91;71.64;96857.42;1737417;81;21269;-77
2021/01/18 07:49:47;;;;;;;9.10;8.40;;;;;;;-11.83;71.63;96852.25;1743826;82;21243;-77
2021/01/18 07:52:24;;;;;;;8.35;7.70;;;;;;;-11.82;71.58;96850.95;1747124;81;21221;-76
2021/01/18 07:54:50;;;;;;;8.13;7.45;;;;;;;-11.76;71.54;96854.14;1742245;81;21341;-76
2021/01/18 07:57:30;;;;;;;8.90;8.10;;;;;;;-11.68;71.76;96857.31;1745042;82;21117;-76
2021/01/18 08:00:27;;;;;;;8.83;8.13;;;;;;;-11.54;71.66;96857.81;1732744;82;21157;-76
2021/01/18 08:03:10;;;;;;;8.70;7.97;;;;;;;-11.49;71.40;96847.67;1744575;81;21241;-76
2021/01/18 08:05:38;;;;;;;7.62;7.22;;;;;;;-11.44;71.57;96852.13;1741135;82;21151;-77
2021/01/18 08:08:14;;;;;;;8.00;7.30;;;;;;;-11.44;71.57;96852.13;1744759;82;21101;-75
2021/01/18 08:11:08;;;;;;;8.35;7.70;;;;;;;-11.38;71.49;96855.77;1739992;82;21109;-77
2021/01/18 08:13:54;;;;;;;8.65;7.90;;;;;;;-11.32;71.42;96856.86;1743441;82;21138;-77
2021/01/18 08:16:40;;;;;;;8.33;7.58;;;;;;;-11.29;71.27;96862.61;1737855;82;21122;-77
2021/01/18 08:19:24;;;;;;;7.62;6.92;;;;;;;-11.23;71.31;96860.37;1742531;80;21126;-78
2021/01/18 08:22:04;;;;;;;8.33;7.60;;;;;;;-11.17;71.11;96866.52;1740145;82;21538;-78
2021/01/18 08:24:36;;;;;;;8.65;7.97;;;;;;;-11.17;71.11;96866.52;1737914;81;21233;-77
2021/01/18 08:27:08;;;;;;;8.53;7.87;;;;;;;-11.13;71.17;96866.83;1734959;82;21381;-77
2021/01/18 08:29:50;;;;;;;8.25;7.65;;;;;;;-11.04;71.20;96858.25;1733016;81;21232;-77
2021/01/18 08:32:35;;;;;;;7.92;7.35;;;;;;;-10.99;71.16;96871.06;1734213;82;21107;-77
2021/01/18 08:35:08;;;;;;;7.40;6.90;;;;;;;-10.89;71.15;96865.39;1742397;81;21255;-77
2021/01/18 08:37:38;;;;;;;7.70;7.20;;;;;;;-10.89;71.15;96865.39;1740862;81;21348;-77
2021/01/18 08:40:13;;;;;;;7.80;7.30;;;;;;;-10.74;70.67;96876.28;1742671;81;21535;-75
2021/01/18 08:42:40;;;;;;;7.28;6.78;;;;;;;-10.74;70.67;96876.28;1747268;81;21111;-75
2021/01/18 08:45:10;;;;;;;7.75;7.17;;;;;;;-10.63;70.76;96883.08;1741516;81;21062;-75
2021/01/18 08:47:41;;;;;;;7.47;6.80;;;;;;;-10.38;70.55;96888.27;1730316;81;21074;-75
2021/01/18 08:50:21;;;;;;;6.75;6.30;;;;;;;-10.38;70.55;96888.27;1730873;81;21094;-77
2021/01/18 08:52:52;;;;;;;6.95;6.45;;;;;;;-10.30;70.37;96887.61;1730108;81;21503;-77
2021/01/18 08:55:33;;;;;;;6.53;6.12;;;;;;;-10.28;70.09;96891.33;1732282;81;21082;-77
2021/01/18 08:58:04;;;;;;;6.72;6.33;;;;;;;-10.36;69.86;96889.05;1728342;81;21090;-78
2021/01/18 09:00:46;;;;;;;7.62;6.92;;;;;;;-10.41;69.79;96890.87;1729757;81;21090;-78
2021/01/18 09:03:17;;;;;;;7.08;6.47;;;;;;;-10.44;69.85;96893.45;1730814;81;21475;-78
2021/01/18 09:05:46;;;;;;;7.17;6.58;;;;;;;-10.43;69.88;96892.58;1740570;81;21102;-77
2021/01/18 09:08:14;;;;;;;6.78;6.28;;;;;;;-10.30;69.91;96884.27;1731671;81;21408;-76
2021/01/18 09:10:40;;;;;;;6.55;6.15;;;;;;;-10.34;69.54;96872.23;1728951;81;21268;-76
2021/01/18 09:13:07;;;;;;;7.35;6.85;;;;;;;-10.38;69.60;96873.20;1730666;81;21121;-77
2021/01/18 09:15:35;;;;;;;7.10;6.45;;;;;;;-10.32;69.85;96875.95;1733511;81;21075;-77
2021/01/18 09:18:10;;;;;;;7.17;6.60;;;;;;;-10.24;69.73;96873.25;1738284;81;21090;-76
2021/01/18 09:20:38;;;;;;;7.10;6.70;;;;;;;-10.12;69.85;96872.41;1732002;80;21117;-75
2021/01/18 09:23:07;;;;;;;7.17;6.62;;;;;;;-9.97;70.00;96872.39;1733081;81;21107;-75
2021/01/18 09:25:35;;;;;;;7.10;6.50;;;;;;;-9.82;69.99;96879.92;1734209;81;21374;-75
2021/01/18 09:28:13;;;;;;;6.85;6.35;;;;;;;-9.69;69.90;96877.43;1738036;81;21356;-75
2021/01/18 09:30:42;;;;;;;7.15;6.55;;;;;;;-9.52;69.63;96878.17;1735003;81;21095;-77
2021/01/18 09:33:10;;;;;;;8.10;7.35;;;;;;;-9.39;69.50;96868.94;1748943;81;21106;-76
2021/01/18 09:35:41;;;;;;;8.73;7.92;;;;;;;-9.19;69.52;96863.25;1721894;82;21089;-76
2021/01/18 09:38:09;;;;;;;8.03;7.20;;;;;;;-9.03;69.70;96851.42;1737732;82;21162;-77
2021/01/18 09:40:37;;;;;;;12.13;9.25;;;;;;;-8.87;69.79;96847.52;1698198;83;21130;-78
2021/01/18 09:43:04;;;;;;;8.48;7.35;;;;;;;-8.67;69.80;96842.60;1681586;84;21158;-77
2021/01/18 09:45:30;;;;;;;15.15;11.35;;;;;;;-8.46;69.73;96838.52;1685255;84;21377;-77
2021/01/18 09:48:08;;;;;;;13.88;9.98;;;;;;;-8.34;69.61;96832.20;1679868;83;21143;-77
2021/01/18 09:50:36;;;;;;;17.55;11.25;;;;;;;-8.25;69.04;96836.88;1707471;82;21455;-77
2021/01/18 09:53:07;;;;;;;38.67;21.30;;;;;;;-8.08;69.43;96838.78;1748524;81;21109;-78
2021/01/18 09:55:37;;;;;;;41.25;19.90;;;;;;;-7.96;68.89;96837.89;1765521;80;21106;-78
2021/01/18 09:58:15;;;;;;;26.37;13.90;;;;;;;-7.92;68.40;96833.55;1758013;79;21134;-77
2021/01/18 10:00:43;;;;;;;18.17;11.88;;;;;;;-7.92;68.48;96826.80;1747776;81;21119;-77
2021/01/18 10:03:10;;;;;;;13.13;8.65;;;;;;;-7.81;68.47;96824.28;1750917;81;21388;-77
2021/01/18 10:05:40;;;;;;;15.28;10.03;;;;;;;-7.72;68.01;96827.73;1763198;80;21129;-77
2021/01/18 10:08:21;;;;;;;18.32;12.53;;;;;;;-7.73;67.72;96819.34;1758609;81;21406;-77
2021/01/18 10:10:50;;;;;;;15.28;11.05;;;;;;;-7.72;67.66;96822.68;1766724;81;21141;-77
2021/01/18 10:13:20;;;;;;;13.62;10.43;;;;;;;-7.68;67.60;96821.23;1748456;81;21086;-77
2021/01/18 10:15:47;;;;;;;30.23;19.85;;;;;;;-7.71;67.23;96823.88;1749940;81;21082;-77
2021/01/18 10:18:41;;;;;;;22.80;13.30;;;;;;;-7.63;67.80;96821.08;1767092;79;21233;-78
2021/01/18 10:21:08;;;;;;;22.02;15.43;;;;;;;-7.44;67.61;96824.51;1761121;81;21216;-77
2021/01/18 10:23:38;;;;;;;27.80;16.15;;;;;;;-7.33;67.68;96826.14;1752891;81;21114;-77
2021/01/18 10:26:20;;;;;;;38.90;20.30;;;;;;;-7.38;67.28;96827.22;1731581;81;21098;-78
2021/01/18 10:29:00;;;;;;;27.80;16.42;;;;;;;-7.42;67.46;96830.31;1748669;81;21122;-77
2021/01/18 10:31:34;;;;;;;36.03;21.30;;;;;;;-7.23;67.56;96821.99;1789451;79;28258;-77
2021/01/18 10:34:19;;;;;;;23.67;13.38;;;;;;;-7.14;67.30;96828.77;1758649;80;21263;-77
2021/01/18 10:36:47;;;;;;;30.92;18.67;;;;;;;-7.06;66.87;96827.17;1776538;79;21109;-76
2021/01/18 10:39:36;;;;;;;28.87;16.25;;;;;;;-7.10;66.81;96831.53;1764149;79;21086;-74
2021/01/18 10:42:18;;;;;;;32.15;19.20;;;;;;;-7.10;66.78;96838.29;1758201;80;21102;-74
2021/01/18 10:44:52;;;;;;;20.12;14.68;;;;;;;-7.02;66.99;96839.59;1747845;79;21133;-74
2021/01/18 10:47:24;;;;;;;27.30;16.35;;;;;;;-7.02;66.59;96836.25;1763898;79;21082;-74
2021/01/18 10:49:58;;;;;;;30.88;16.67;;;;;;;-7.06;66.57;96840.62;1761964;79;21252;-75
2021/01/18 10:52:40;;;;;;;40.17;22.22;;;;;;;-7.08;66.96;96833.55;1768119;79;21109;-74
2021/01/18 10:55:07;;;;;;;37.55;23.30;;;;;;;-7.00;67.02;96835.74;1760814;80;21109;-74
2021/01/18 10:57:41;;;;;;;41.85;25.35;;;;;;;-6.86;67.21;96832.64;1756057;80;21435;-75
2021/01/18 11:00:13;;;;;;;42.13;25.57;;;;;;;-6.67;67.35;96833.53;1753216;80;21105;-77
2021/01/18 11:02:41;;;;;;;34.55;20.90;;;;;;;-6.46;67.29;96835.12;1766717;79;21137;-77
2021/01/18 11:05:09;;;;;;;51.70;28.25;;;;;;;-6.36;67.06;96833.81;1764654;79;21396;-76
2021/01/18 11:07:40;;;;;;;76.82;36.88;;;;;;;-6.35;66.49;96830.84;1751735;80;21102;-74
2021/01/18 11:10:07;;;;;;;49.98;24.98;;;;;;;-6.32;66.85;96832.00;1769297;80;21125;-76
2021/01/18 11:12:38;;;;;;;81.70;39.27;;;;;;;-6.25;66.61;96837.59;1766256;80;21094;-76
2021/01/18 11:15:08;;;;;;;99.13;43.17;;;;;;;-6.15;66.56;96838.84;1781492;79;21141;-76
2021/01/18 11:17:39;;;;;;;115.22;49.55;;;;;;;-6.21;66.43;96837.37;1771921;80;21105;-76
2021/01/18 11:20:08;;;;;;;49.10;25.92;;;;;;;-6.20;66.74;96831.88;1735124;82;21118;-75
2021/01/18 11:22:34;;;;;;;146.93;62.83;;;;;;;-6.14;66.16;96829.09;1763152;80;21107;-76
2021/01/18 11:25:01;;;;;;;57.23;28.50;;;;;;;-6.08;66.39;96824.56;1769559;79;21136;-75
2021/01/18 11:27:27;;;;;;;125.47;44.23;;;;;;;-5.96;66.35;96821.93;1757919;80;21082;-76
2021/01/18 11:29:53;;;;;;;43.30;19.57;;;;;;;-5.87;66.48;96815.58;1753399;80;21138;-76
2021/01/18 11:32:19;;;;;;;65.85;29.90;;;;;;;-5.83;65.65;96815.39;1750919;81;21114;-76
2021/01/18 11:34:46;;;;;;;40.03;23.45;;;;;;;-5.84;66.07;96815.02;1685826;84;21265;-76
2021/01/18 11:37:12;;;;;;;79.77;33.67;;;;;;;-5.73;66.02;96814.50;1690050;82;21158;-75
2021/01/18 11:39:38;;;;;;;37.88;20.92;;;;;;;-5.61;65.94;96811.40;1751354;79;21244;-75
2021/01/18 11:42:06;;;;;;;39.27;22.17;;;;;;;-5.52;66.07;96807.18;1762445;79;21091;-74